sensor_id;sensor_type;location;lat;lon;timestamp;temperature;humidity
51476;DHT22;37554;50.362;7.568;2024-01-27T00:00:08;14.20;50.80
51476;DHT22;37554;50.362;7.568;2024-01-27T00:02:35;14.20;50.80
51476;DHT22;37554;50.362;7.568;2024-01-27T00:05:00;14.20;50.90
51476;DHT22;37554;50.362;7.568;2024-01-27T00:07:26;14.20;50.80
51476;DHT22;37554;50.362;7.568;2024-01-27T00:09:57;14.10;50.80
51476;DHT22;37554;50.362;7.568;2024-01-27T00:12:24;14.10;50.90
51476;DHT22;37554;50.362;7.568;2024-01-27T00:14:50;14.10;50.90
51476;DHT22;37554;50.362;7.568;2024-01-27T00:17:15;14.10;50.90
51476;DHT22;37554;50.362;7.568;2024-01-27T00:19:41;14.10;51.00
51476;DHT22;37554;50.362;7.568;2024-01-27T00:22:07;14.10;51.00
51476;DHT22;37554;50.362;7.568;2024-01-27T00:24:33;14.10;51.00
51476;DHT22;37554;50.362;7.568;2024-01-27T00:26:59;14.10;51.00
51476;DHT22;37554;50.362;7.568;2024-01-27T00:29:25;14.00;51.00
51476;DHT22;37554;50.362;7.568;2024-01-27T00:31:50;14.00;51.10
51476;DHT22;37554;50.362;7.568;2024-01-27T00:34:16;14.00;51.10
51476;DHT22;37554;50.362;7.568;2024-01-27T00:36:42;14.00;51.10
51476;DHT22;37554;50.362;7.568;2024-01-27T00:39:17;14.00;51.10
51476;DHT22;37554;50.362;7.568;2024-01-27T00:41:42;13.90;51.10
51476;DHT22;37554;50.362;7.568;2024-01-27T00:44:08;13.90;51.10
51476;DHT22;37554;50.362;7.568;2024-01-27T00:46:34;13.90;51.20
51476;DHT22;37554;50.362;7.568;2024-01-27T00:49:00;13.90;51.10
51476;DHT22;37554;50.362;7.568;2024-01-27T00:51:25;13.80;51.10
51476;DHT22;37554;50.362;7.568;2024-01-27T00:53:51;13.80;51.20
51476;DHT22;37554;50.362;7.568;2024-01-27T00:56:16;13.80;51.20
51476;DHT22;37554;50.362;7.568;2024-01-27T00:58:42;13.80;51.20
51476;DHT22;37554;50.362;7.568;2024-01-27T01:01:07;13.80;51.20
51476;DHT22;37554;50.362;7.568;2024-01-27T01:03:33;13.70;51.20
51476;DHT22;37554;50.362;7.568;2024-01-27T01:05:59;13.70;51.20
51476;DHT22;37554;50.362;7.568;2024-01-27T01:08:24;13.70;51.30
51476;DHT22;37554;50.362;7.568;2024-01-27T01:10:50;13.70;51.30
51476;DHT22;37554;50.362;7.568;2024-01-27T01:13:15;13.70;51.30
51476;DHT22;37554;50.362;7.568;2024-01-27T01:15:41;13.60;51.30
51476;DHT22;37554;50.362;7.568;2024-01-27T01:18:07;13.60;51.20
51476;DHT22;37554;50.362;7.568;2024-01-27T01:20:33;13.60;51.20
51476;DHT22;37554;50.362;7.568;2024-01-27T01:22:59;13.60;51.30
51476;DHT22;37554;50.362;7.568;2024-01-27T01:25:24;13.60;51.30
51476;DHT22;37554;50.362;7.568;2024-01-27T01:27:50;13.50;51.20
51476;DHT22;37554;50.362;7.568;2024-01-27T01:30:16;13.50;51.30
51476;DHT22;37554;50.362;7.568;2024-01-27T01:32:42;13.50;51.30
51476;DHT22;37554;50.362;7.568;2024-01-27T01:35:09;13.40;51.20
51476;DHT22;37554;50.362;7.568;2024-01-27T01:37:35;13.40;51.30
51476;DHT22;37554;50.362;7.568;2024-01-27T01:40:01;13.40;51.30
51476;DHT22;37554;50.362;7.568;2024-01-27T01:42:28;13.40;51.30
51476;DHT22;37554;50.362;7.568;2024-01-27T01:44:54;13.40;51.30
51476;DHT22;37554;50.362;7.568;2024-01-27T01:47:20;13.40;51.90
51476;DHT22;37554;50.362;7.568;2024-01-27T01:49:47;13.30;51.30
51476;DHT22;37554;50.362;7.568;2024-01-27T01:52:14;13.30;51.30
51476;DHT22;37554;50.362;7.568;2024-01-27T01:54:49;13.30;51.30
51476;DHT22;37554;50.362;7.568;2024-01-27T01:57:15;13.30;51.30
51476;DHT22;37554;50.362;7.568;2024-01-27T01:59:42;13.30;51.30
51476;DHT22;37554;50.362;7.568;2024-01-27T02:02:08;13.30;51.30
51476;DHT22;37554;50.362;7.568;2024-01-27T02:07:06;13.30;51.40
51476;DHT22;37554;50.362;7.568;2024-01-27T02:09:32;13.20;51.40
51476;DHT22;37554;50.362;7.568;2024-01-27T02:11:57;13.20;51.40
51476;DHT22;37554;50.362;7.568;2024-01-27T02:14:23;13.20;52.00
51476;DHT22;37554;50.362;7.568;2024-01-27T02:16:50;13.20;51.40
51476;DHT22;37554;50.362;7.568;2024-01-27T02:19:16;13.20;51.50
51476;DHT22;37554;50.362;7.568;2024-01-27T02:21:41;13.20;51.50
51476;DHT22;37554;50.362;7.568;2024-01-27T02:24:07;13.20;51.50
51476;DHT22;37554;50.362;7.568;2024-01-27T02:26:33;13.20;51.50
51476;DHT22;37554;50.362;7.568;2024-01-27T02:28:58;13.20;51.50
51476;DHT22;37554;50.362;7.568;2024-01-27T02:31:24;13.10;51.40
51476;DHT22;37554;50.362;7.568;2024-01-27T02:33:49;13.10;51.40
51476;DHT22;37554;50.362;7.568;2024-01-27T02:36:15;13.10;51.50
51476;DHT22;37554;50.362;7.568;2024-01-27T02:38:41;13.10;51.50
51476;DHT22;37554;50.362;7.568;2024-01-27T02:41:06;13.00;51.50
51476;DHT22;37554;50.362;7.568;2024-01-27T02:43:32;13.00;51.50
51476;DHT22;37554;50.362;7.568;2024-01-27T02:45:57;13.00;51.60
51476;DHT22;37554;50.362;7.568;2024-01-27T02:48:23;13.10;51.60
51476;DHT22;37554;50.362;7.568;2024-01-27T02:50:48;13.00;51.50
51476;DHT22;37554;50.362;7.568;2024-01-27T02:53:14;13.00;51.60
51476;DHT22;37554;50.362;7.568;2024-01-27T02:55:40;13.00;51.60
51476;DHT22;37554;50.362;7.568;2024-01-27T02:58:05;13.00;51.60
51476;DHT22;37554;50.362;7.568;2024-01-27T03:00:31;13.00;51.60
51476;DHT22;37554;50.362;7.568;2024-01-27T03:02:57;13.00;51.60
51476;DHT22;37554;50.362;7.568;2024-01-27T03:05:23;12.90;51.60
51476;DHT22;37554;50.362;7.568;2024-01-27T03:07:49;13.00;51.60
51476;DHT22;37554;50.362;7.568;2024-01-27T03:10:14;12.90;52.20
51476;DHT22;37554;50.362;7.568;2024-01-27T03:12:40;12.90;51.60
51476;DHT22;37554;50.362;7.568;2024-01-27T03:15:06;12.90;51.60
51476;DHT22;37554;50.362;7.568;2024-01-27T03:17:31;12.90;51.60
51476;DHT22;37554;50.362;7.568;2024-01-27T03:19:57;12.90;51.70
51476;DHT22;37554;50.362;7.568;2024-01-27T03:22:22;12.90;51.70
51476;DHT22;37554;50.362;7.568;2024-01-27T03:24:48;12.90;51.70
51476;DHT22;37554;50.362;7.568;2024-01-27T03:27:15;12.80;51.60
51476;DHT22;37554;50.362;7.568;2024-01-27T03:29:41;12.80;51.60
51476;DHT22;37554;50.362;7.568;2024-01-27T03:32:06;12.80;51.60
51476;DHT22;37554;50.362;7.568;2024-01-27T03:34:32;12.80;51.60
51476;DHT22;37554;50.362;7.568;2024-01-27T03:36:58;12.80;51.70
51476;DHT22;37554;50.362;7.568;2024-01-27T03:39:23;12.80;51.70
51476;DHT22;37554;50.362;7.568;2024-01-27T03:41:49;12.80;51.70
51476;DHT22;37554;50.362;7.568;2024-01-27T03:44:14;12.80;51.70
51476;DHT22;37554;50.362;7.568;2024-01-27T03:46:40;12.70;51.70
51476;DHT22;37554;50.362;7.568;2024-01-27T03:49:07;12.70;51.70
51476;DHT22;37554;50.362;7.568;2024-01-27T03:51:34;12.70;51.70
51476;DHT22;37554;50.362;7.568;2024-01-27T03:54:00;12.70;51.70
51476;DHT22;37554;50.362;7.568;2024-01-27T03:56:25;12.70;51.70
51476;DHT22;37554;50.362;7.568;2024-01-27T03:58:51;12.70;51.70
51476;DHT22;37554;50.362;7.568;2024-01-27T04:01:16;12.70;51.70
51476;DHT22;37554;50.362;7.568;2024-01-27T04:03:42;12.70;51.70
51476;DHT22;37554;50.362;7.568;2024-01-27T04:06:08;12.70;51.70
51476;DHT22;37554;50.362;7.568;2024-01-27T04:08:35;12.60;51.70
51476;DHT22;37554;50.362;7.568;2024-01-27T04:11:00;12.60;51.70
51476;DHT22;37554;50.362;7.568;2024-01-27T04:13:26;12.60;51.70
51476;DHT22;37554;50.362;7.568;2024-01-27T04:15:52;12.60;51.80
51476;DHT22;37554;50.362;7.568;2024-01-27T04:18:19;12.60;51.80
51476;DHT22;37554;50.362;7.568;2024-01-27T04:20:44;12.60;51.90
51476;DHT22;37554;50.362;7.568;2024-01-27T04:23:11;12.60;51.90
51476;DHT22;37554;50.362;7.568;2024-01-27T04:25:38;12.60;51.80
51476;DHT22;37554;50.362;7.568;2024-01-27T04:28:03;12.60;51.90
51476;DHT22;37554;50.362;7.568;2024-01-27T04:30:30;12.60;51.90
51476;DHT22;37554;50.362;7.568;2024-01-27T04:32:58;12.60;51.90
51476;DHT22;37554;50.362;7.568;2024-01-27T04:35:24;12.60;51.90
51476;DHT22;37554;50.362;7.568;2024-01-27T04:37:50;12.60;51.90
51476;DHT22;37554;50.362;7.568;2024-01-27T04:40:16;12.60;51.90
51476;DHT22;37554;50.362;7.568;2024-01-27T04:42:42;12.50;51.80
51476;DHT22;37554;50.362;7.568;2024-01-27T04:45:08;12.50;51.80
51476;DHT22;37554;50.362;7.568;2024-01-27T04:47:33;12.50;51.80
51476;DHT22;37554;50.362;7.568;2024-01-27T04:49:59;12.50;51.80
51476;DHT22;37554;50.362;7.568;2024-01-27T04:52:25;12.50;51.80
51476;DHT22;37554;50.362;7.568;2024-01-27T04:54:51;12.50;51.80
51476;DHT22;37554;50.362;7.568;2024-01-27T04:57:17;12.50;51.90
51476;DHT22;37554;50.362;7.568;2024-01-27T04:59:42;12.50;51.80
51476;DHT22;37554;50.362;7.568;2024-01-27T05:02:08;12.40;51.80
51476;DHT22;37554;50.362;7.568;2024-01-27T05:04:33;12.40;51.80
51476;DHT22;37554;50.362;7.568;2024-01-27T05:06:59;12.40;51.90
51476;DHT22;37554;50.362;7.568;2024-01-27T05:09:25;12.40;51.90
51476;DHT22;37554;50.362;7.568;2024-01-27T05:11:50;12.40;51.90
51476;DHT22;37554;50.362;7.568;2024-01-27T05:14:19;12.30;52.00
51476;DHT22;37554;50.362;7.568;2024-01-27T05:16:44;12.30;51.90
51476;DHT22;37554;50.362;7.568;2024-01-27T05:19:10;12.30;52.00
51476;DHT22;37554;50.362;7.568;2024-01-27T05:21:38;12.30;52.00
51476;DHT22;37554;50.362;7.568;2024-01-27T05:24:04;12.30;52.00
51476;DHT22;37554;50.362;7.568;2024-01-27T05:26:31;12.20;52.00
51476;DHT22;37554;50.362;7.568;2024-01-27T05:28:57;12.20;52.00
51476;DHT22;37554;50.362;7.568;2024-01-27T05:31:22;12.20;52.00
51476;DHT22;37554;50.362;7.568;2024-01-27T05:33:48;12.20;52.20
51476;DHT22;37554;50.362;7.568;2024-01-27T05:36:14;12.20;52.20
51476;DHT22;37554;50.362;7.568;2024-01-27T05:38:41;12.20;52.30
51476;DHT22;37554;50.362;7.568;2024-01-27T05:41:06;12.20;52.20
51476;DHT22;37554;50.362;7.568;2024-01-27T05:43:32;12.30;52.30
51476;DHT22;37554;50.362;7.568;2024-01-27T05:45:57;12.30;52.30
51476;DHT22;37554;50.362;7.568;2024-01-27T05:48:24;12.30;52.20
51476;DHT22;37554;50.362;7.568;2024-01-27T05:50:57;12.40;52.20
51476;DHT22;37554;50.362;7.568;2024-01-27T05:53:25;12.40;52.10
51476;DHT22;37554;50.362;7.568;2024-01-27T05:55:51;12.40;52.10
51476;DHT22;37554;50.362;7.568;2024-01-27T05:58:18;12.40;52.00
51476;DHT22;37554;50.362;7.568;2024-01-27T06:00:47;12.40;52.00
51476;DHT22;37554;50.362;7.568;2024-01-27T06:03:12;12.50;51.90
51476;DHT22;37554;50.362;7.568;2024-01-27T06:05:38;12.50;51.90
51476;DHT22;37554;50.362;7.568;2024-01-27T06:08:07;12.50;51.80
51476;DHT22;37554;50.362;7.568;2024-01-27T06:10:34;12.50;51.80
51476;DHT22;37554;50.362;7.568;2024-01-27T06:13:02;12.50;51.70
51476;DHT22;37554;50.362;7.568;2024-01-27T06:15:28;12.40;51.70
51476;DHT22;37554;50.362;7.568;2024-01-27T06:17:53;12.40;51.70
51476;DHT22;37554;50.362;7.568;2024-01-27T06:20:22;12.40;51.60
51476;DHT22;37554;50.362;7.568;2024-01-27T06:22:48;12.40;51.70
51476;DHT22;37554;50.362;7.568;2024-01-27T06:25:14;12.40;51.60
51476;DHT22;37554;50.362;7.568;2024-01-27T06:27:41;12.30;51.60
51476;DHT22;37554;50.362;7.568;2024-01-27T06:30:08;12.30;51.60
51476;DHT22;37554;50.362;7.568;2024-01-27T06:32:35;12.30;51.60
51476;DHT22;37554;50.362;7.568;2024-01-27T06:35:00;12.30;51.70
51476;DHT22;37554;50.362;7.568;2024-01-27T06:37:27;12.20;51.70
51476;DHT22;37554;50.362;7.568;2024-01-27T06:39:53;12.20;51.70
51476;DHT22;37554;50.362;7.568;2024-01-27T06:42:18;12.20;51.70
51476;DHT22;37554;50.362;7.568;2024-01-27T06:44:44;12.20;51.80
51476;DHT22;37554;50.362;7.568;2024-01-27T06:47:12;12.20;51.80
51476;DHT22;37554;50.362;7.568;2024-01-27T06:49:39;12.20;51.80
51476;DHT22;37554;50.362;7.568;2024-01-27T06:52:05;12.20;51.80
51476;DHT22;37554;50.362;7.568;2024-01-27T06:54:32;12.20;51.80
51476;DHT22;37554;50.362;7.568;2024-01-27T06:56:59;12.20;51.80
51476;DHT22;37554;50.362;7.568;2024-01-27T06:59:25;12.20;51.80
51476;DHT22;37554;50.362;7.568;2024-01-27T07:01:51;12.20;51.70
51476;DHT22;37554;50.362;7.568;2024-01-27T07:04:17;12.20;51.70
51476;DHT22;37554;50.362;7.568;2024-01-27T07:06:44;12.20;51.70
51476;DHT22;37554;50.362;7.568;2024-01-27T07:09:10;12.20;51.70
51476;DHT22;37554;50.362;7.568;2024-01-27T07:11:36;12.30;51.70
51476;DHT22;37554;50.362;7.568;2024-01-27T07:14:03;12.20;51.70
51476;DHT22;37554;50.362;7.568;2024-01-27T07:16:29;12.20;51.60
51476;DHT22;37554;50.362;7.568;2024-01-27T07:18:55;12.30;51.60
51476;DHT22;37554;50.362;7.568;2024-01-27T07:21:21;12.20;51.50
51476;DHT22;37554;50.362;7.568;2024-01-27T07:23:46;12.30;51.60
51476;DHT22;37554;50.362;7.568;2024-01-27T07:26:12;12.30;51.60
51476;DHT22;37554;50.362;7.568;2024-01-27T07:28:38;12.30;51.60
51476;DHT22;37554;50.362;7.568;2024-01-27T07:31:06;12.20;51.60
51476;DHT22;37554;50.362;7.568;2024-01-27T07:33:32;12.20;51.60
51476;DHT22;37554;50.362;7.568;2024-01-27T07:35:58;12.20;51.60
51476;DHT22;37554;50.362;7.568;2024-01-27T07:38:24;12.20;51.50
51476;DHT22;37554;50.362;7.568;2024-01-27T07:40:50;12.20;51.50
51476;DHT22;37554;50.362;7.568;2024-01-27T07:43:15;12.20;51.50
51476;DHT22;37554;50.362;7.568;2024-01-27T07:45:42;11.70;50.20
51476;DHT22;37554;50.362;7.568;2024-01-27T07:48:07;11.10;50.40
51476;DHT22;37554;50.362;7.568;2024-01-27T07:50:34;10.60;51.10
51476;DHT22;37554;50.362;7.568;2024-01-27T07:53:00;10.30;52.30
51476;DHT22;37554;50.362;7.568;2024-01-27T07:55:26;10.60;53.70
51476;DHT22;37554;50.362;7.568;2024-01-27T07:57:51;11.00;53.90
51476;DHT22;37554;50.362;7.568;2024-01-27T08:00:20;11.40;52.70
51476;DHT22;37554;50.362;7.568;2024-01-27T08:02:46;11.70;52.20
51476;DHT22;37554;50.362;7.568;2024-01-27T08:05:12;11.90;51.70
51476;DHT22;37554;50.362;7.568;2024-01-27T08:07:38;12.20;51.40
51476;DHT22;37554;50.362;7.568;2024-01-27T08:10:04;12.30;51.10
51476;DHT22;37554;50.362;7.568;2024-01-27T08:12:31;12.50;51.00
51476;DHT22;37554;50.362;7.568;2024-01-27T08:14:57;12.60;51.00
51476;DHT22;37554;50.362;7.568;2024-01-27T08:17:23;12.70;51.00
51476;DHT22;37554;50.362;7.568;2024-01-27T08:19:48;12.80;50.90
51476;DHT22;37554;50.362;7.568;2024-01-27T08:22:14;12.90;50.70
51476;DHT22;37554;50.362;7.568;2024-01-27T08:24:40;13.00;50.60
51476;DHT22;37554;50.362;7.568;2024-01-27T08:27:05;13.10;50.40
51476;DHT22;37554;50.362;7.568;2024-01-27T08:29:31;13.20;50.40
51476;DHT22;37554;50.362;7.568;2024-01-27T08:31:58;13.20;50.20
51476;DHT22;37554;50.362;7.568;2024-01-27T08:34:25;13.30;50.30
51476;DHT22;37554;50.362;7.568;2024-01-27T08:36:51;13.40;50.40
51476;DHT22;37554;50.362;7.568;2024-01-27T08:39:17;13.40;50.30
51476;DHT22;37554;50.362;7.568;2024-01-27T08:41:43;13.40;50.40
51476;DHT22;37554;50.362;7.568;2024-01-27T08:44:09;13.50;50.40
51476;DHT22;37554;50.362;7.568;2024-01-27T08:46:35;13.50;50.40
51476;DHT22;37554;50.362;7.568;2024-01-27T08:49:00;13.60;50.40
51476;DHT22;37554;50.362;7.568;2024-01-27T08:51:26;13.60;50.30
51476;DHT22;37554;50.362;7.568;2024-01-27T08:53:52;13.70;50.40
51476;DHT22;37554;50.362;7.568;2024-01-27T08:56:18;13.70;50.30
51476;DHT22;37554;50.362;7.568;2024-01-27T08:58:44;13.70;50.40
51476;DHT22;37554;50.362;7.568;2024-01-27T09:01:10;13.70;50.30
51476;DHT22;37554;50.362;7.568;2024-01-27T09:03:39;13.80;50.40
51476;DHT22;37554;50.362;7.568;2024-01-27T09:06:06;13.80;50.40
51476;DHT22;37554;50.362;7.568;2024-01-27T09:08:33;13.90;50.40
51476;DHT22;37554;50.362;7.568;2024-01-27T09:11:01;13.90;50.40
51476;DHT22;37554;50.362;7.568;2024-01-27T09:13:27;14.00;50.40
51476;DHT22;37554;50.362;7.568;2024-01-27T09:15:53;14.10;50.30
51476;DHT22;37554;50.362;7.568;2024-01-27T09:18:18;14.20;50.40
51476;DHT22;37554;50.362;7.568;2024-01-27T09:20:44;14.20;50.30
51476;DHT22;37554;50.362;7.568;2024-01-27T09:23:10;14.30;50.30
51476;DHT22;37554;50.362;7.568;2024-01-27T09:25:35;14.40;50.30
51476;DHT22;37554;50.362;7.568;2024-01-27T09:28:01;14.50;50.30
51476;DHT22;37554;50.362;7.568;2024-01-27T09:30:27;14.60;50.30
51476;DHT22;37554;50.362;7.568;2024-01-27T09:32:54;14.70;50.30
51476;DHT22;37554;50.362;7.568;2024-01-27T09:35:20;14.80;50.30
51476;DHT22;37554;50.362;7.568;2024-01-27T09:37:47;14.90;50.30
51476;DHT22;37554;50.362;7.568;2024-01-27T09:40:12;15.00;50.20
51476;DHT22;37554;50.362;7.568;2024-01-27T09:42:38;15.20;50.30
51476;DHT22;37554;50.362;7.568;2024-01-27T09:45:05;15.40;50.30
51476;DHT22;37554;50.362;7.568;2024-01-27T09:47:31;15.50;50.10
51476;DHT22;37554;50.362;7.568;2024-01-27T09:49:57;15.70;50.00
51476;DHT22;37554;50.362;7.568;2024-01-27T09:52:24;15.90;50.10
51476;DHT22;37554;50.362;7.568;2024-01-27T09:54:49;16.20;50.00
51476;DHT22;37554;50.362;7.568;2024-01-27T09:57:15;16.40;49.80
51476;DHT22;37554;50.362;7.568;2024-01-27T09:59:41;16.70;49.60
51476;DHT22;37554;50.362;7.568;2024-01-27T10:02:11;16.90;49.40
51476;DHT22;37554;50.362;7.568;2024-01-27T10:04:41;17.20;49.10
51476;DHT22;37554;50.362;7.568;2024-01-27T10:07:08;17.50;49.00
51476;DHT22;37554;50.362;7.568;2024-01-27T10:09:33;17.80;49.10
51476;DHT22;37554;50.362;7.568;2024-01-27T10:12:01;18.10;48.90
51476;DHT22;37554;50.362;7.568;2024-01-27T10:14:41;18.50;48.60
51476;DHT22;37554;50.362;7.568;2024-01-27T10:17:10;18.90;48.10
51476;DHT22;37554;50.362;7.568;2024-01-27T10:19:36;19.20;47.60
51476;DHT22;37554;50.362;7.568;2024-01-27T10:22:01;19.50;47.20
51476;DHT22;37554;50.362;7.568;2024-01-27T10:24:28;19.80;46.70
51476;DHT22;37554;50.362;7.568;2024-01-27T10:27:04;20.00;46.30
51476;DHT22;37554;50.362;7.568;2024-01-27T10:29:30;20.30;46.00
51476;DHT22;37554;50.362;7.568;2024-01-27T10:32:09;20.50;45.70
51476;DHT22;37554;50.362;7.568;2024-01-27T10:34:35;20.70;45.30
51476;DHT22;37554;50.362;7.568;2024-01-27T10:37:01;21.00;45.00
51476;DHT22;37554;50.362;7.568;2024-01-27T10:39:27;21.20;44.80
51476;DHT22;37554;50.362;7.568;2024-01-27T10:41:53;21.40;44.50
51476;DHT22;37554;50.362;7.568;2024-01-27T10:44:19;21.60;44.20
51476;DHT22;37554;50.362;7.568;2024-01-27T10:46:47;21.80;44.00
51476;DHT22;37554;50.362;7.568;2024-01-27T10:49:14;22.00;43.70
51476;DHT22;37554;50.362;7.568;2024-01-27T10:51:45;22.20;43.50
51476;DHT22;37554;50.362;7.568;2024-01-27T10:54:14;22.40;43.30
51476;DHT22;37554;50.362;7.568;2024-01-27T10:56:43;22.50;43.10
51476;DHT22;37554;50.362;7.568;2024-01-27T10:59:11;22.70;42.90
51476;DHT22;37554;50.362;7.568;2024-01-27T11:01:40;22.80;42.70
51476;DHT22;37554;50.362;7.568;2024-01-27T11:04:06;23.00;42.40
51476;DHT22;37554;50.362;7.568;2024-01-27T11:06:35;23.10;42.30
51476;DHT22;37554;50.362;7.568;2024-01-27T11:09:03;23.20;42.10
51476;DHT22;37554;50.362;7.568;2024-01-27T11:11:30;23.20;41.70
51476;DHT22;37554;50.362;7.568;2024-01-27T11:13:56;23.30;41.30
51476;DHT22;37554;50.362;7.568;2024-01-27T11:16:23;23.40;41.20
51476;DHT22;37554;50.362;7.568;2024-01-27T11:18:49;23.50;41.10
51476;DHT22;37554;50.362;7.568;2024-01-27T11:21:15;23.50;41.00
51476;DHT22;37554;50.362;7.568;2024-01-27T11:23:42;23.50;41.00
51476;DHT22;37554;50.362;7.568;2024-01-27T11:26:09;23.60;40.90
51476;DHT22;37554;50.362;7.568;2024-01-27T11:28:35;23.70;40.80
51476;DHT22;37554;50.362;7.568;2024-01-27T11:31:08;23.80;40.80
51476;DHT22;37554;50.362;7.568;2024-01-27T11:33:40;23.80;40.70
51476;DHT22;37554;50.362;7.568;2024-01-27T11:36:06;24.00;40.10
51476;DHT22;37554;50.362;7.568;2024-01-27T11:38:33;24.10;40.80
51476;DHT22;37554;50.362;7.568;2024-01-27T11:41:03;24.30;41.00
51476;DHT22;37554;50.362;7.568;2024-01-27T11:43:29;24.30;41.30
51476;DHT22;37554;50.362;7.568;2024-01-27T11:45:59;24.30;41.60
51476;DHT22;37554;50.362;7.568;2024-01-27T11:48:25;24.50;41.60
51476;DHT22;37554;50.362;7.568;2024-01-27T11:51:08;24.50;41.70
51476;DHT22;37554;50.362;7.568;2024-01-27T11:53:35;24.40;41.60
51476;DHT22;37554;50.362;7.568;2024-01-27T11:56:01;24.10;41.90
51476;DHT22;37554;50.362;7.568;2024-01-27T11:58:28;23.80;42.30
51476;DHT22;37554;50.362;7.568;2024-01-27T12:00:54;23.60;42.80
51476;DHT22;37554;50.362;7.568;2024-01-27T12:03:20;23.40;43.00
51476;DHT22;37554;50.362;7.568;2024-01-27T12:05:46;23.20;43.20
51476;DHT22;37554;50.362;7.568;2024-01-27T12:08:11;23.00;43.50
51476;DHT22;37554;50.362;7.568;2024-01-27T12:10:37;22.80;43.60
51476;DHT22;37554;50.362;7.568;2024-01-27T12:13:03;22.70;43.70
51476;DHT22;37554;50.362;7.568;2024-01-27T12:15:29;22.50;43.60
51476;DHT22;37554;50.362;7.568;2024-01-27T12:17:55;22.50;43.90
51476;DHT22;37554;50.362;7.568;2024-01-27T12:20:23;22.40;44.20
51476;DHT22;37554;50.362;7.568;2024-01-27T12:22:49;22.30;44.40
51476;DHT22;37554;50.362;7.568;2024-01-27T12:25:16;22.20;44.60
51476;DHT22;37554;50.362;7.568;2024-01-27T12:27:43;22.20;44.80
51476;DHT22;37554;50.362;7.568;2024-01-27T12:30:09;22.10;45.10
51476;DHT22;37554;50.362;7.568;2024-01-27T12:32:36;21.90;45.20
51476;DHT22;37554;50.362;7.568;2024-01-27T12:35:08;21.90;45.60
51476;DHT22;37554;50.362;7.568;2024-01-27T12:37:34;21.80;46.00
51476;DHT22;37554;50.362;7.568;2024-01-27T12:40:01;21.70;46.10
51476;DHT22;37554;50.362;7.568;2024-01-27T12:42:26;21.60;46.30
51476;DHT22;37554;50.362;7.568;2024-01-27T12:44:52;21.60;46.10
51476;DHT22;37554;50.362;7.568;2024-01-27T12:47:18;21.50;46.00
51476;DHT22;37554;50.362;7.568;2024-01-27T12:49:45;21.40;46.00
51476;DHT22;37554;50.362;7.568;2024-01-27T12:52:11;21.40;46.00
51476;DHT22;37554;50.362;7.568;2024-01-27T12:54:38;21.50;46.00
51476;DHT22;37554;50.362;7.568;2024-01-27T12:57:04;21.70;46.00
51476;DHT22;37554;50.362;7.568;2024-01-27T12:59:31;21.90;46.30
51476;DHT22;37554;50.362;7.568;2024-01-27T13:01:57;22.10;45.30
51476;DHT22;37554;50.362;7.568;2024-01-27T13:04:23;22.30;45.00
51476;DHT22;37554;50.362;7.568;2024-01-27T13:06:49;22.40;44.70
51476;DHT22;37554;50.362;7.568;2024-01-27T13:09:14;22.60;44.50
51476;DHT22;37554;50.362;7.568;2024-01-27T13:11:40;22.70;44.20
51476;DHT22;37554;50.362;7.568;2024-01-27T13:14:06;22.90;44.10
51476;DHT22;37554;50.362;7.568;2024-01-27T13:16:34;23.00;43.90
51476;DHT22;37554;50.362;7.568;2024-01-27T13:19:00;23.10;43.70
51476;DHT22;37554;50.362;7.568;2024-01-27T13:21:26;23.30;43.40
51476;DHT22;37554;50.362;7.568;2024-01-27T13:23:51;23.50;43.20
51476;DHT22;37554;50.362;7.568;2024-01-27T13:26:18;23.60;42.90
51476;DHT22;37554;50.362;7.568;2024-01-27T13:28:44;23.80;42.70
51476;DHT22;37554;50.362;7.568;2024-01-27T13:31:09;23.90;42.40
51476;DHT22;37554;50.362;7.568;2024-01-27T13:33:35;24.10;42.10
51476;DHT22;37554;50.362;7.568;2024-01-27T13:36:01;24.20;41.80
51476;DHT22;37554;50.362;7.568;2024-01-27T13:38:27;24.30;41.60
51476;DHT22;37554;50.362;7.568;2024-01-27T13:40:53;24.40;41.50
51476;DHT22;37554;50.362;7.568;2024-01-27T13:43:18;23.50;37.40
51476;DHT22;37554;50.362;7.568;2024-01-27T13:45:44;22.50;36.40
51476;DHT22;37554;50.362;7.568;2024-01-27T13:48:11;21.50;36.60
51476;DHT22;37554;50.362;7.568;2024-01-27T13:50:37;20.70;36.90
51476;DHT22;37554;50.362;7.568;2024-01-27T13:53:02;20.30;37.10
51476;DHT22;37554;50.362;7.568;2024-01-27T13:55:30;19.90;37.20
51476;DHT22;37554;50.362;7.568;2024-01-27T13:57:56;19.60;36.90
51476;DHT22;37554;50.362;7.568;2024-01-27T14:00:22;19.20;37.10
51476;DHT22;37554;50.362;7.568;2024-01-27T14:02:47;19.50;37.50
51476;DHT22;37554;50.362;7.568;2024-01-27T14:05:13;20.40;37.10
51476;DHT22;37554;50.362;7.568;2024-01-27T14:07:39;21.20;36.80
51476;DHT22;37554;50.362;7.568;2024-01-27T14:10:05;22.00;36.10
51476;DHT22;37554;50.362;7.568;2024-01-27T14:12:30;22.80;35.30
51476;DHT22;37554;50.362;7.568;2024-01-27T14:15:06;23.50;34.70
51476;DHT22;37554;50.362;7.568;2024-01-27T14:17:33;24.20;33.90
51476;DHT22;37554;50.362;7.568;2024-01-27T14:20:00;24.90;33.60
51476;DHT22;37554;50.362;7.568;2024-01-27T14:22:26;25.50;33.00
51476;DHT22;37554;50.362;7.568;2024-01-27T14:24:52;26.10;32.70
51476;DHT22;37554;50.362;7.568;2024-01-27T14:27:18;26.60;32.30
51476;DHT22;37554;50.362;7.568;2024-01-27T14:29:54;26.90;32.10
51476;DHT22;37554;50.362;7.568;2024-01-27T14:32:20;27.20;32.10
51476;DHT22;37554;50.362;7.568;2024-01-27T14:34:46;27.40;32.00
51476;DHT22;37554;50.362;7.568;2024-01-27T14:37:12;27.60;31.90
51476;DHT22;37554;50.362;7.568;2024-01-27T14:39:39;27.20;31.10
51476;DHT22;37554;50.362;7.568;2024-01-27T14:42:09;27.10;31.70
51476;DHT22;37554;50.362;7.568;2024-01-27T14:44:35;27.50;31.70
51476;DHT22;37554;50.362;7.568;2024-01-27T14:47:01;28.00;31.40
51476;DHT22;37554;50.362;7.568;2024-01-27T14:49:27;28.40;31.20
51476;DHT22;37554;50.362;7.568;2024-01-27T14:51:53;28.70;31.10
51476;DHT22;37554;50.362;7.568;2024-01-27T14:54:19;28.70;30.80
51476;DHT22;37554;50.362;7.568;2024-01-27T14:56:45;27.90;30.80
51476;DHT22;37554;50.362;7.568;2024-01-27T14:59:12;27.20;31.10
51476;DHT22;37554;50.362;7.568;2024-01-27T15:01:37;26.90;31.30
51476;DHT22;37554;50.362;7.568;2024-01-27T15:04:03;26.60;31.70
51476;DHT22;37554;50.362;7.568;2024-01-27T15:06:29;26.40;31.90
51476;DHT22;37554;50.362;7.568;2024-01-27T15:08:55;26.30;32.10
51476;DHT22;37554;50.362;7.568;2024-01-27T15:11:21;26.20;32.30
51476;DHT22;37554;50.362;7.568;2024-01-27T15:13:47;26.10;32.40
51476;DHT22;37554;50.362;7.568;2024-01-27T15:16:12;25.70;32.80
51476;DHT22;37554;50.362;7.568;2024-01-27T15:18:38;25.30;33.10
51476;DHT22;37554;50.362;7.568;2024-01-27T15:21:08;24.90;33.60
51476;DHT22;37554;50.362;7.568;2024-01-27T15:23:34;24.50;34.20
51476;DHT22;37554;50.362;7.568;2024-01-27T15:26:02;24.20;34.80